Time;durP1;ratioP1;P1;durP2;ratioP2;P2;SDS_P1;SDS_P2;PMS_P1;PMS_P2;Temp;Humidity;BMP_temperature;BMP_pressure;BME280_temperature;BME280_humidity;BME280_pressure;Samples;Min_cycle;Max_cycle;Signal;HPM_P1;HPM_P2
2021/04/16 00:01:24;;;;;;;9.70;8.38;;;;;;;1.15;100.00;96952.56;5045865;28;20073;-53
2021/04/16 00:03:51;;;;;;;10.18;8.07;;;;;;;1.13;100.00;96942.22;5041788;28;20080;-48
2021/04/16 00:06:20;;;;;;;9.20;8.13;;;;;;;0.94;100.00;96941.47;5046029;28;20676;-51
2021/04/16 00:08:47;;;;;;;9.52;8.30;;;;;;;1.05;100.00;96952.16;5047121;28;20068;-55
2021/04/16 00:11:17;;;;;;;9.07;8.18;;;;;;;0.71;100.00;96943.38;5044808;28;20063;-52
2021/04/16 00:13:44;;;;;;;9.23;7.73;;;;;;;0.73;100.00;96937.31;5041974;28;20053;-53
2021/04/16 00:16:14;;;;;;;10.73;8.23;;;;;;;0.60;100.00;96939.63;5033446;28;20619;-52
2021/04/16 00:18:43;;;;;;;8.88;7.43;;;;;;;0.52;100.00;96940.00;5049668;28;20527;-50
2021/04/16 00:21:11;;;;;;;8.57;7.57;;;;;;;0.48;100.00;96938.44;5041767;28;20079;-51
2021/04/16 00:23:39;;;;;;;8.85;7.80;;;;;;;0.57;100.00;96940.59;5046538;28;20065;-51
2021/04/16 00:26:07;;;;;;;8.90;8.00;;;;;;;0.30;100.00;96940.13;5043702;28;20072;-49
2021/04/16 00:28:34;;;;;;;9.65;8.10;;;;;;;0.23;100.00;96936.97;5039162;28;20075;-50
2021/04/16 00:31:06;;;;;;;8.57;7.68;;;;;;;0.28;100.00;96933.34;5042989;28;20073;-47
2021/04/16 00:33:34;;;;;;;9.90;7.60;;;;;;;0.26;100.00;96938.56;5048989;28;20124;-51
2021/04/16 00:36:04;;;;;;;7.88;6.72;;;;;;;0.25;100.00;96931.72;5046618;28;20057;-50
2021/04/16 00:38:31;;;;;;;8.35;6.63;;;;;;;0.23;100.00;96931.78;5046440;28;20083;-52
2021/04/16 00:41:00;;;;;;;7.68;6.88;;;;;;;0.29;100.00;96935.00;5039620;28;20061;-50
2021/04/16 00:43:31;;;;;;;8.25;6.70;;;;;;;0.27;100.00;96924.69;5042598;28;20451;-53
2021/04/16 00:46:18;;;;;;;8.63;6.95;;;;;;;0.30;100.00;96921.97;5046698;28;20081;-53
2021/04/16 00:48:48;;;;;;;8.65;6.70;;;;;;;0.24;100.00;96922.22;5046879;28;20099;-51
2021/04/16 00:51:19;;;;;;;8.23;7.20;;;;;;;0.12;100.00;96923.66;5041794;28;20485;-49
2021/04/16 00:53:46;;;;;;;8.43;7.13;;;;;;;0.27;100.00;96921.25;5044673;28;20065;-49
2021/04/16 00:56:14;;;;;;;8.10;7.05;;;;;;;0.28;100.00;96923.81;5044878;28;20467;-50
2021/04/16 00:58:42;;;;;;;9.35;7.22;;;;;;;0.18;100.00;96918.19;5038854;28;20451;-51
2021/04/16 01:01:10;;;;;;;8.60;7.15;;;;;;;0.12;100.00;96920.22;5047212;28;20213;-49
2021/04/16 01:03:38;;;;;;;10.18;7.30;;;;;;;0.04;100.00;96919.72;5046718;28;20467;-51
2021/04/16 01:06:07;;;;;;;9.00;8.10;;;;;;;0.09;100.00;96916.00;5046038;28;20537;-53
2021/04/16 01:08:36;;;;;;;10.33;7.63;;;;;;;0.12;100.00;96918.47;5035612;28;20061;-50
2021/04/16 01:11:05;;;;;;;8.57;7.40;;;;;;;0.17;100.00;96911.31;5046350;28;20069;-53
2021/04/16 01:13:34;;;;;;;9.32;7.68;;;;;;;0.22;100.00;96908.50;5044324;28;20069;-49
2021/04/16 01:16:03;;;;;;;8.77;7.75;;;;;;;0.20;100.00;96907.72;5047668;28;20072;-51
2021/04/16 01:18:34;;;;;;;8.95;7.60;;;;;;;0.13;100.00;96914.09;5044313;28;20076;-48
2021/04/16 01:21:05;;;;;;;8.38;7.47;;;;;;;0.12;100.00;96913.28;5041587;28;20072;-51
2021/04/16 01:23:41;;;;;;;13.00;7.97;;;;;;;0.06;100.00;96908.34;5028977;28;20084;-49
2021/04/16 01:26:11;;;;;;;8.88;7.80;;;;;;;0.07;100.00;96907.47;5046884;28;20072;-49
2021/04/16 01:28:38;;;;;;;9.15;7.70;;;;;;;-0.05;100.00;96910.59;5034906;28;20052;-53
2021/04/16 01:31:09;;;;;;;10.40;8.02;;;;;;;-0.48;100.00;96912.50;5047216;28;20072;-53
2021/04/16 01:33:37;;;;;;;8.35;7.47;;;;;;;-0.44;100.00;96919.22;5046056;28;20462;-54
2021/04/16 01:36:07;;;;;;;9.30;8.40;;;;;;;-0.43;100.00;96910.53;5042926;28;20498;-53
2021/04/16 01:38:34;;;;;;;9.65;7.85;;;;;;;-0.37;100.00;96901.66;5020001;28;20064;-51
2021/04/16 01:41:02;;;;;;;11.80;8.35;;;;;;;-0.43;100.00;96907.94;5047339;28;20076;-51
2021/04/16 01:43:34;;;;;;;10.05;7.82;;;;;;;-0.47;100.00;96908.16;5035141;28;20053;-49
2021/04/16 01:46:05;;;;;;;10.40;8.00;;;;;;;-0.42;100.00;96901.84;5050215;28;20066;-49
2021/04/16 01:48:37;;;;;;;8.70;7.80;;;;;;;-0.32;100.00;96900.53;5051632;28;20075;-52
2021/04/16 01:51:07;;;;;;;10.65;8.02;;;;;;;-0.31;100.00;96898.78;5045035;28;20526;-50
2021/04/16 01:53:36;;;;;;;9.23;8.30;;;;;;;-0.22;100.00;96889.78;5036691;28;20064;-49
2021/04/16 01:56:04;;;;;;;8.75;7.50;;;;;;;-0.15;100.00;96893.78;5045561;28;20053;-49
2021/04/16 01:58:32;;;;;;;9.00;8.00;;;;;;;-0.14;100.00;96890.25;5048165;28;20506;-52
2021/04/16 02:01:01;;;;;;;11.15;8.15;;;;;;;-0.19;100.00;96900.00;5048292;28;20073;-54
2021/04/16 02:03:29;;;;;;;11.55;7.65;;;;;;;-0.28;100.00;96893.47;5032338;28;20068;-55
2021/04/16 02:05:57;;;;;;;9.93;7.85;;;;;;;-0.56;100.00;96899.00;5041842;28;20514;-53
2021/04/16 02:08:24;;;;;;;11.00;8.65;;;;;;;-0.52;100.00;96901.44;5050024;28;20068;-54
2021/04/16 02:10:52;;;;;;;9.82;7.93;;;;;;;-0.54;100.00;96892.03;5045688;28;20556;-55
2021/04/16 02:13:20;;;;;;;10.52;8.13;;;;;;;-0.48;100.00;96889.19;5047213;28;20110;-51
2021/04/16 02:15:48;;;;;;;11.00;7.75;;;;;;;-0.39;100.00;96893.09;5048831;28;20049;-48
2021/04/16 02:18:16;;;;;;;9.75;7.50;;;;;;;-0.34;100.00;96892.00;5049042;28;20323;-52
2021/04/16 02:20:44;;;;;;;8.70;7.80;;;;;;;-0.28;100.00;96877.91;5047691;28;20160;-49
2021/04/16 02:23:12;;;;;;;7.80;7.00;;;;;;;-0.29;100.00;96887.44;5048477;28;20411;-54
2021/04/16 02:25:40;;;;;;;8.00;6.95;;;;;;;-0.23;100.00;96880.31;5044471;28;20068;-49
2021/04/16 02:28:08;;;;;;;10.32;8.38;;;;;;;-0.23;100.00;96883.75;5049738;28;20069;-50
2021/04/16 02:30:37;;;;;;;8.02;7.22;;;;;;;-0.15;100.00;96878.22;5045946;28;20495;-50
2021/04/16 02:33:05;;;;;;;10.80;7.43;;;;;;;-0.23;100.00;96869.97;5045741;28;20068;-52
2021/04/16 02:35:33;;;;;;;8.10;7.35;;;;;;;-0.21;100.00;96881.09;5021557;28;20053;-50
2021/04/16 02:38:00;;;;;;;8.40;7.20;;;;;;;-0.41;100.00;96884.53;5042305;28;20072;-52
2021/04/16 02:40:28;;;;;;;9.05;8.15;;;;;;;-0.51;100.00;96874.59;5046604;28;20087;-52
2021/04/16 02:42:56;;;;;;;8.55;7.55;;;;;;;-0.72;100.00;96875.53;5043048;28;20108;-49
2021/04/16 02:45:26;;;;;;;9.75;7.97;;;;;;;-0.89;100.00;96878.00;5049777;28;20076;-52
2021/04/16 02:47:55;;;;;;;9.70;8.20;;;;;;;-0.83;100.00;96877.72;5043618;28;20068;-50
2021/04/16 02:50:27;;;;;;;15.55;9.65;;;;;;;-0.85;100.00;96872.63;5041163;28;20104;-50
2021/04/16 02:52:55;;;;;;;18.35;8.18;;;;;;;-0.98;100.00;96882.63;5041759;28;20069;-50
2021/04/16 02:55:22;;;;;;;13.57;8.00;;;;;;;-1.02;100.00;96877.66;5045493;28;20073;-55
2021/04/16 02:57:50;;;;;;;11.73;7.88;;;;;;;-0.93;100.00;96876.41;5038680;28;20061;-47
2021/04/16 03:00:20;;;;;;;11.18;7.43;;;;;;;-0.80;100.00;96872.41;5046513;28;20084;-51
2021/04/16 03:02:48;;;;;;;12.40;7.60;;;;;;;-1.01;100.00;96881.91;5045602;28;20072;-52
2021/04/16 03:05:16;;;;;;;9.20;8.23;;;;;;;-1.07;100.00;96877.00;5047888;28;20529;-51
2021/04/16 03:07:44;;;;;;;10.82;8.05;;;;;;;-1.10;100.00;96872.81;5043137;28;20059;-50
2021/04/16 03:10:13;;;;;;;9.85;8.77;;;;;;;-1.31;100.00;96878.84;5033374;28;20572;-53
2021/04/16 03:12:42;;;;;;;13.35;8.25;;;;;;;-1.31;100.00;96877.13;5046795;28;20510;-51
2021/04/16 03:15:10;;;;;;;9.98;7.82;;;;;;;-1.30;100.00;96877.94;5042627;28;20136;-47
2021/04/16 03:17:38;;;;;;;10.20;8.30;;;;;;;-1.20;100.00;96872.34;5027628;28;20076;-49
2021/04/16 03:20:07;;;;;;;14.18;9.05;;;;;;;-1.06;100.00;96871.75;5046028;28;20060;-48
2021/04/16 03:22:35;;;;;;;9.77;8.18;;;;;;;-1.02;100.00;96869.91;5038779;28;20060;-50
2021/04/16 03:25:05;;;;;;;15.07;8.57;;;;;;;-1.09;100.00;96868.47;5028569;28;20061;-53
2021/04/16 03:27:33;;;;;;;9.85;8.57;;;;;;;-1.18;100.00;96869.66;5047026;28;20060;-48
2021/04/16 03:30:00;;;;;;;10.70;7.63;;;;;;;-1.13;100.00;96872.09;5044824;28;20057;-54
2021/04/16 03:32:28;;;;;;;10.18;8.35;;;;;;;-0.99;100.00;96870.59;5036927;28;20106;-47
2021/04/16 03:34:56;;;;;;;9.10;8.07;;;;;;;-1.04;100.00;96874.28;5039772;28;20124;-50
2021/04/16 03:37:24;;;;;;;10.57;8.30;;;;;;;-1.02;100.00;96859.53;5046734;28;20440;-49
2021/04/16 03:39:51;;;;;;;9.80;8.25;;;;;;;-1.07;100.00;96867.47;5045079;28;20080;-53
2021/04/16 03:42:20;;;;;;;10.20;8.38;;;;;;;-0.94;100.00;96865.22;5046391;28;20088;-48
2021/04/16 03:44:47;;;;;;;9.93;7.93;;;;;;;-0.91;100.00;96859.91;5040511;28;20061;-49
2021/04/16 03:47:16;;;;;;;10.55;8.35;;;;;;;-0.97;100.00;96857.59;5046637;28;20076;-49
2021/04/16 03:49:45;;;;;;;11.10;7.63;;;;;;;-1.23;100.00;96861.28;5039005;28;20075;-49
2021/04/16 03:52:14;;;;;;;10.35;8.05;;;;;;;-1.23;100.00;96866.44;5045345;28;20071;-52
2021/04/16 03:54:41;;;;;;;34.90;29.15;;;;;;;-1.28;100.00;96869.19;5046817;28;20084;-48
2021/04/16 03:57:09;;;;;;;11.30;9.80;;;;;;;-1.32;100.00;96870.22;5044779;28;20061;-50
2021/04/16 03:59:38;;;;;;;12.00;9.00;;;;;;;-1.36;100.00;96873.84;5032534;28;20083;-48
2021/04/16 04:02:05;;;;;;;11.27;8.70;;;;;;;-0.99;100.00;96868.03;5043669;28;20125;-49
2021/04/16 04:04:33;;;;;;;11.77;8.70;;;;;;;-1.35;100.00;96880.69;5035162;28;20072;-50
2021/04/16 04:07:00;;;;;;;13.02;8.40;;;;;;;-1.24;100.00;96875.97;5048484;28;20538;-53
2021/04/16 04:09:28;;;;;;;14.10;9.18;;;;;;;-1.30;100.00;96875.38;5043008;28;20080;-48
2021/04/16 04:11:55;;;;;;;9.35;8.35;;;;;;;-1.20;100.00;96880.09;5043952;28;20127;-50
2021/04/16 04:14:23;;;;;;;13.82;8.38;;;;;;;-1.19;100.00;96870.59;5047722;28;20084;-50
2021/04/16 04:16:54;;;;;;;13.55;8.27;;;;;;;-0.90;100.00;96869.38;5041665;28;20079;-53
2021/04/16 04:19:23;;;;;;;10.63;8.32;;;;;;;-0.84;100.00;96868.28;5046813;28;20537;-49
2021/04/16 04:21:52;;;;;;;10.60;8.30;;;;;;;-0.74;100.00;96873.00;5044971;28;20111;-52
2021/04/16 04:24:20;;;;;;;9.82;8.73;;;;;;;-0.83;100.00;96873.38;5045841;28;20155;-55
2021/04/16 04:26:48;;;;;;;11.02;8.65;;;;;;;-0.96;100.00;96883.44;5038833;28;20060;-54
2021/04/16 04:29:18;;;;;;;11.15;8.63;;;;;;;-1.15;100.00;96874.72;5040155;28;20073;-52
2021/04/16 04:31:48;;;;;;;9.68;8.30;;;;;;;-1.50;100.00;96889.09;5041761;28;20075;-50
2021/04/16 04:34:19;;;;;;;10.27;8.43;;;;;;;-1.31;100.00;96884.88;5045379;28;20068;-52
2021/04/16 04:36:47;;;;;;;10.00;8.82;;;;;;;-1.26;100.00;96882.94;5046982;28;20456;-50
2021/04/16 04:39:15;;;;;;;11.20;9.00;;;;;;;-1.05;100.00;96883.78;5042407;28;20064;-49
2021/04/16 04:41:43;;;;;;;12.55;9.30;;;;;;;-0.94;100.00;96883.34;5039954;28;20076;-51
2021/04/16 04:44:10;;;;;;;11.43;9.45;;;;;;;-0.99;100.00;96885.31;5046249;28;20065;-53
2021/04/16 04:46:39;;;;;;;11.95;9.07;;;;;;;-0.79;100.00;96887.03;5042948;28;20072;-53
2021/04/16 04:49:09;;;;;;;14.73;10.05;;;;;;;-1.08;100.00;96890.84;5045280;28;20092;-51
2021/04/16 04:51:38;;;;;;;14.55;9.20;;;;;;;-1.11;100.00;96894.38;5039080;28;20084;-48
2021/04/16 04:54:07;;;;;;;12.10;9.52;;;;;;;-0.84;100.00;96896.75;5045497;28;20641;-54
2021/04/16 04:56:39;;;;;;;12.85;8.55;;;;;;;-0.75;100.00;96893.78;5033921;28;20045;-48
2021/04/16 04:59:07;;;;;;;9.80;8.18;;;;;;;-0.04;100.00;96892.38;5045891;28;20067;-53
2021/04/16 05:01:34;;;;;;;12.95;9.52;;;;;;;0.98;100.00;96885.03;5038081;28;20068;-54
2021/04/16 05:04:02;;;;;;;10.88;8.75;;;;;;;1.46;100.00;96881.72;5045099;28;20455;-50
2021/04/16 05:06:30;;;;;;;9.63;7.57;;;;;;;1.87;100.00;96881.34;5048801;28;20084;-50
2021/04/16 05:08:58;;;;;;;12.20;7.25;;;;;;;2.61;100.00;96884.25;5039737;28;20068;-51
2021/04/16 05:11:26;;;;;;;7.75;6.95;;;;;;;3.37;96.72;96875.56;5042529;28;20546;-53
2021/04/16 05:13:54;;;;;;;9.23;6.78;;;;;;;4.37;88.05;96869.50;5043270;28;20065;-54
2021/04/16 05:16:21;;;;;;;7.63;6.60;;;;;;;4.15;86.05;96870.03;5043783;28;20160;-47
2021/04/16 05:18:51;;;;;;;9.05;6.40;;;;;;;4.43;84.58;96871.75;5046734;28;20077;-48
2021/04/16 05:21:19;;;;;;;7.43;6.68;;;;;;;4.68;81.72;96878.84;5044281;28;20482;-48
2021/04/16 05:23:46;;;;;;;8.10;6.95;;;;;;;4.71;81.94;96876.03;5043839;28;20072;-50
2021/04/16 05:26:16;;;;;;;7.70;6.70;;;;;;;3.95;89.13;96874.69;5038689;28;20061;-48
2021/04/16 05:28:44;;;;;;;7.50;6.65;;;;;;;3.22;97.80;96879.91;5043338;28;20080;-49
2021/04/16 05:31:11;;;;;;;11.43;6.75;;;;;;;2.21;100.00;96892.56;5043751;28;20068;-52
2021/04/16 05:33:39;;;;;;;8.10;7.07;;;;;;;2.30;100.00;96890.28;5047710;28;20336;-53
2021/04/16 05:36:06;;;;;;;11.65;7.45;;;;;;;1.80;100.00;96893.00;5045093;28;20068;-53
2021/04/16 05:38:34;;;;;;;7.90;7.07;;;;;;;1.90;100.00;96894.19;5034005;28;20069;-49
2021/04/16 05:41:01;;;;;;;10.77;7.20;;;;;;;2.14;100.00;96897.25;5045714;28;20484;-49
2021/04/16 05:43:30;;;;;;;9.68;7.68;;;;;;;2.26;100.00;96893.13;5043214;28;20060;-53
2021/04/16 05:46:01;;;;;;;9.60;7.13;;;;;;;2.09;100.00;96901.84;5042886;28;20217;-52
2021/04/16 05:48:29;;;;;;;9.88;8.05;;;;;;;2.08;100.00;96903.63;5044552;28;20092;-49
2021/04/16 05:50:56;;;;;;;10.13;7.38;;;;;;;2.08;100.00;96905.38;5040940;28;20497;-50
2021/04/16 05:53:24;;;;;;;9.73;8.10;;;;;;;2.02;100.00;96895.28;5040381;28;20495;-51
2021/04/16 05:55:52;;;;;;;12.35;8.82;;;;;;;2.28;100.00;96899.13;5042000;28;20045;-53
2021/04/16 05:58:19;;;;;;;10.90;8.40;;;;;;;2.48;100.00;96903.22;5042238;28;20084;-48
2021/04/16 06:00:47;;;;;;;15.07;8.35;;;;;;;2.81;100.00;96900.50;5043424;28;20080;-55
2021/04/16 06:03:17;;;;;;;11.52;7.93;;;;;;;2.87;100.00;96897.56;5036174;28;20549;-50
2021/04/16 06:05:44;;;;;;;13.40;8.75;;;;;;;2.96;100.00;96902.28;5043743;28;20079;-52
2021/04/16 06:08:12;;;;;;;12.20;7.75;;;;;;;3.02;100.00;96898.47;5044563;28;20075;-48
2021/04/16 06:10:40;;;;;;;11.93;8.38;;;;;;;3.25;100.00;96894.53;5041944;28;20737;-49
2021/04/16 06:13:26;;;;;;;11.30;8.45;;;;;;;3.22;100.00;96890.34;5045481;28;20510;-52
2021/04/16 06:15:55;;;;;;;9.25;7.30;;;;;;;3.14;100.00;96891.72;5041904;28;20554;-55
2021/04/16 06:18:23;;;;;;;12.18;8.30;;;;;;;3.64;100.00;96886.13;5048925;28;20080;-51
2021/04/16 06:20:51;;;;;;;8.57;7.68;;;;;;;3.29;100.00;96889.06;5040512;28;20071;-48
2021/04/16 06:23:19;;;;;;;8.68;7.13;;;;;;;3.43;100.00;96890.84;5043784;28;20123;-54
2021/04/16 06:25:46;;;;;;;9.10;8.20;;;;;;;3.28;100.00;96889.97;5044261;28;20068;-49
2021/04/16 06:28:14;;;;;;;10.90;8.32;;;;;;;3.61;100.00;96882.88;5047946;28;20060;-50
2021/04/16 06:30:44;;;;;;;9.10;7.90;;;;;;;3.80;100.00;96881.69;5045691;28;20080;-55
2021/04/16 06:33:24;;;;;;;13.65;8.43;;;;;;;3.89;100.00;96887.25;5049022;28;20604;-51
2021/04/16 06:35:54;;;;;;;10.23;8.55;;;;;;;4.03;100.00;96882.91;5044543;28;20065;-51
2021/04/16 06:38:26;;;;;;;10.68;8.38;;;;;;;3.84;100.00;96879.72;5047530;28;20068;-53
2021/04/16 06:41:09;;;;;;;13.27;9.52;;;;;;;3.71;100.00;96882.22;5040605;28;20072;-58
2021/04/16 06:43:54;;;;;;;16.58;9.07;;;;;;;3.90;100.00;96875.91;5047671;28;20041;-50
2021/04/16 06:46:27;;;;;;;14.07;8.47;;;;;;;4.13;100.00;96879.72;5044399;28;20077;-49
2021/04/16 06:48:59;;;;;;;29.92;20.42;;;;;;;4.20;100.00;96873.19;5048593;28;20495;-48
2021/04/16 06:51:26;;;;;;;13.02;9.60;;;;;;;4.01;100.00;96874.31;5043500;28;20087;-52
2021/04/16 06:53:58;;;;;;;13.90;9.95;;;;;;;4.32;100.00;96872.41;5047211;28;20064;-49
2021/04/16 06:56:31;;;;;;;14.95;10.25;;;;;;;4.95;100.00;96864.00;5044194;28;20076;-51
2021/04/16 06:59:03;;;;;;;13.27;9.68;;;;;;;4.66;100.00;96867.69;5047942;28;20067;-49
2021/04/16 07:01:33;;;;;;;12.07;9.95;;;;;;;4.19;100.00;96869.72;5040359;28;20510;-52
2021/04/16 07:04:17;;;;;;;13.50;9.90;;;;;;;4.21;100.00;96867.88;5048769;28;20483;-48
2021/04/16 07:06:45;;;;;;;16.00;12.27;;;;;;;3.99;100.00;96873.59;5048065;28;20091;-53
2021/04/16 07:09:14;;;;;;;13.50;10.02;;;;;;;4.55;100.00;96870.97;5044289;28;20069;-49
2021/04/16 07:11:43;;;;;;;16.77;9.68;;;;;;;4.72;100.00;96868.13;5037945;28;20073;-49
2021/04/16 07:14:14;;;;;;;13.57;10.82;;;;;;;5.18;100.00;96870.34;5048440;28;20064;-48
2021/04/16 07:16:42;;;;;;;12.57;9.75;;;;;;;5.59;100.00;96868.53;5045657;28;20087;-50
2021/04/16 07:19:17;;;;;;;12.93;10.13;;;;;;;5.81;93.47;96866.13;5046962;28;20076;-54
2021/04/16 07:21:44;;;;;;;13.25;9.80;;;;;;;5.54;98.63;96871.47;5049149;28;20770;-47
2021/04/16 07:24:16;;;;;;;12.00;9.60;;;;;;;5.43;96.34;96880.00;5028986;28;20065;-52
2021/04/16 07:26:46;;;;;;;11.32;9.27;;;;;;;5.45;94.31;96877.31;5040086;28;20061;-49
2021/04/16 07:29:19;;;;;;;12.23;9.63;;;;;;;4.83;100.00;96885.72;5045776;28;20061;-47
2021/04/16 07:31:50;;;;;;;13.00;9.45;;;;;;;5.41;96.34;96863.59;5044587;28;20068;-46
2021/04/16 07:34:34;;;;;;;10.95;9.20;;;;;;;5.67;96.60;96871.47;5044135;28;20087;-48
2021/04/16 07:37:12;;;;;;;11.45;9.05;;;;;;;4.96;100.00;96870.09;5031606;28;20076;-47
2021/04/16 07:39:46;;;;;;;11.57;8.70;;;;;;;6.10;88.15;96879.03;5046095;28;20151;-51
2021/04/16 07:42:22;;;;;;;12.65;9.10;;;;;;;5.63;93.99;96878.69;5045193;28;20130;-46
2021/04/16 07:45:18;;;;;;;11.93;9.23;;;;;;;6.21;87.78;96886.13;5044916;28;20087;-47
2021/04/16 07:47:47;;;;;;;13.32;9.50;;;;;;;6.08;85.98;96884.34;5014961;28;20060;-47
2021/04/16 07:50:29;;;;;;;14.23;10.05;;;;;;;5.75;91.35;96884.88;5028138;28;20065;-50
2021/04/16 07:52:57;;;;;;;12.13;10.18;;;;;;;5.91;88.18;96876.78;5039123;28;20107;-49
2021/04/16 07:55:27;;;;;;;13.45;10.57;;;;;;;5.67;91.95;96881.91;5046247;28;20061;-50
2021/04/16 07:58:09;;;;;;;12.73;9.82;;;;;;;6.37;84.09;96882.31;5044775;28;20077;-48
2021/04/16 08:00:38;;;;;;;13.70;9.90;;;;;;;5.94;87.85;96889.72;5047028;28;20442;-47
2021/04/16 08:03:13;;;;;;;11.95;9.27;;;;;;;6.50;83.50;96887.53;5047347;28;20522;-47
2021/04/16 08:05:43;;;;;;;11.95;9.82;;;;;;;6.59;77.21;96883.41;5043652;28;20057;-46
2021/04/16 08:08:30;;;;;;;10.65;8.45;;;;;;;6.86;77.00;96885.84;5043235;28;20443;-48
2021/04/16 08:11:12;;;;;;;10.82;9.35;;;;;;;7.11;77.57;96882.25;5044820;28;20079;-48
2021/04/16 08:13:53;;;;;;;12.35;9.35;;;;;;;6.61;78.80;96886.78;5044361;28;20083;-46
2021/04/16 08:16:20;;;;;;;;;;;;;;;6.27;79.43;96889.16;5045000;28;20065;-50
2021/04/16 08:19:03;;;;;;;10.48;8.68;;;;;;;6.84;76.56;96885.94;5045764;28;19971;-49
2021/04/16 08:21:35;;;;;;;13.95;9.88;;;;;;;7.01;75.62;96886.50;5045548;28;20528;-50
2021/04/16 08:24:08;;;;;;;10.40;9.18;;;;;;;7.47;67.49;96875.25;5046756;28;20763;-47
2021/04/16 08:26:38;;;;;;;10.05;8.48;;;;;;;8.14;63.02;96877.13;5045604;28;20545;-47
2021/04/16 08:29:09;;;;;;;10.35;8.70;;;;;;;7.43;67.46;96879.03;5037183;28;20073;-46
2021/04/16 08:31:37;;;;;;;;;;;;;;;8.44;62.60;96868.69;5042822;28;20071;-46
2021/04/16 08:34:07;;;;;;;8.80;7.90;;;;;;;8.54;55.88;96867.00;5044413;28;19964;-51
2021/04/16 08:36:38;;;;;;;8.40;7.50;;;;;;;8.49;57.10;96877.84;5038145;28;20076;-54
2021/04/16 08:39:10;;;;;;;9.25;8.35;;;;;;;9.04;54.04;96868.16;5044997;28;20069;-51
2021/04/16 08:41:43;;;;;;;8.88;7.93;;;;;;;9.10;52.70;96876.53;5039402;28;20200;-47
2021/04/16 08:44:11;;;;;;;9.68;8.43;;;;;;;9.00;53.91;96881.69;5045704;28;20465;-49
2021/04/16 08:46:43;;;;;;;9.48;7.93;;;;;;;8.60;52.60;96878.78;5041027;28;20538;-50
2021/04/16 08:49:15;;;;;;;9.55;8.10;;;;;;;8.80;53.10;96873.59;5045057;28;20072;-46
2021/04/16 08:51:45;;;;;;;8.50;7.60;;;;;;;8.16;56.04;96878.69;5040115;28;20095;-50
2021/04/16 08:54:17;;;;;;;8.82;7.93;;;;;;;8.04;56.98;96877.00;5045779;28;20080;-50
2021/04/16 08:56:52;;;;;;;9.35;8.35;;;;;;;8.45;55.00;96871.16;5042835;28;20557;-52
2021/04/16 08:59:26;;;;;;;8.52;7.53;;;;;;;8.55;58.85;96872.09;5043160;28;20073;-48
2021/04/16 09:01:57;;;;;;;9.20;8.20;;;;;;;8.50;58.71;96876.09;5039040;28;20068;-48
2021/04/16 09:04:42;;;;;;;8.65;7.70;;;;;;;8.70;59.70;96874.47;5045514;28;20065;-51
2021/04/16 09:07:29;;;;;;;8.90;8.00;;;;;;;8.76;55.11;96880.06;5043470;28;20091;-51
2021/04/16 09:09:58;;;;;;;9.30;7.88;;;;;;;8.90;51.75;96871.06;5043878;28;20091;-51
2021/04/16 09:12:47;;;;;;;8.13;7.25;;;;;;;9.34;50.10;96871.03;5042503;28;20079;-50
2021/04/16 09:15:45;;;;;;;8.52;7.20;;;;;;;8.82;51.05;96867.41;5044515;28;21587;-53
2021/04/16 09:18:30;;;;;;;9.30;7.85;;;;;;;8.12;54.45;96866.75;4944625;28;20067;-51
2021/04/16 09:21:26;;;;;;;8.52;7.63;;;;;;;9.65;50.92;96857.00;5034626;28;20633;-45
2021/04/16 09:24:00;;;;;;;9.52;7.70;;;;;;;10.25;49.54;96858.94;5045727;28;20072;-48
2021/04/16 09:27:07;;;;;;;9.48;8.48;;;;;;;10.60;45.73;96867.31;5038548;28;20065;-51
2021/04/16 09:29:42;;;;;;;8.20;7.18;;;;;;;9.84;46.83;96860.69;5040940;28;20061;-52
2021/04/16 09:32:48;;;;;;;9.43;8.38;;;;;;;10.11;47.84;96865.41;5042578;28;20083;-53
2021/04/16 09:35:49;;;;;;;8.88;7.90;;;;;;;10.46;46.35;96854.50;5043655;28;20470;-55
2021/04/16 09:38:39;;;;;;;9.07;8.18;;;;;;;9.96;46.03;96855.22;5037616;28;20053;-51
2021/04/16 09:41:15;;;;;;;9.55;7.75;;;;;;;9.54;47.29;96864.13;5036979;28;20076;-51
2021/04/16 09:43:44;;;;;;;8.23;7.43;;;;;;;9.97;46.88;96853.41;5043018;28;20819;-46
2021/04/16 09:46:39;;;;;;;9.85;7.57;;;;;;;10.29;46.65;96855.97;5044546;28;20067;-47
2021/04/16 09:49:09;;;;;;;7.97;7.18;;;;;;;11.11;46.25;96849.59;5045201;28;20076;-51
2021/04/16 09:51:38;;;;;;;8.82;7.47;;;;;;;10.68;47.05;96864.00;5040127;28;20514;-48
2021/04/16 09:54:27;;;;;;;7.13;6.43;;;;;;;11.07;44.50;96854.31;5038375;28;20473;-50
2021/04/16 09:57:24;;;;;;;7.50;6.38;;;;;;;11.10;43.69;96854.03;5046281;28;20065;-51
2021/04/16 09:59:54;;;;;;;6.68;6.07;;;;;;;10.49;43.20;96856.00;5008920;28;20069;-51
2021/04/16 10:02:38;;;;;;;7.20;6.50;;;;;;;10.87;43.30;96855.25;5045031;28;20572;-48
2021/04/16 10:05:38;;;;;;;8.18;7.03;;;;;;;10.03;44.73;96858.16;5044614;28;20056;-53
2021/04/16 10:08:18;;;;;;;7.07;6.15;;;;;;;10.39;43.28;96855.97;5032773;28;20060;-50
2021/04/16 10:10:46;;;;;;;6.68;5.97;;;;;;;9.72;45.04;96844.97;5048902;28;20091;-50
2021/04/16 10:13:16;;;;;;;5.72;5.13;;;;;;;10.43;43.11;96846.84;5048664;28;20076;-50
2021/04/16 10:15:46;;;;;;;5.88;5.28;;;;;;;10.62;42.02;96846.06;5048503;28;20494;-49
2021/04/16 10:18:27;;;;;;;6.35;5.43;;;;;;;9.68;43.06;96848.84;5039346;28;20072;-47
2021/04/16 10:20:59;;;;;;;5.00;4.53;;;;;;;10.45;41.38;96848.38;5045181;28;20072;-49
2021/04/16 10:23:32;;;;;;;6.00;5.40;;;;;;;10.81;42.49;96840.84;5043961;28;20057;-52
2021/04/16 12:39:17;;;;;;;7.85;5.35;;;;;;;12.50;38.15;96812.84;5042761;28;20506;-49
2021/04/16 12:41:50;;;;;;;5.97;5.38;;;;;;;11.85;39.17;96809.38;5045367;28;20068;-48
2021/04/16 12:44:25;;;;;;;6.00;5.32;;;;;;;11.66;38.57;96810.22;5044336;28;20065;-51
2021/04/16 12:46:53;;;;;;;7.07;6.15;;;;;;;12.32;38.29;96796.94;5039584;28;20052;-47
2021/04/16 12:49:23;;;;;;;6.05;5.13;;;;;;;12.05;37.87;96805.69;5046313;28;20077;-50
2021/04/16 12:51:50;;;;;;;7.07;6.22;;;;;;;12.22;37.54;96798.81;5040694;28;20076;-51
2021/04/16 12:54:18;;;;;;;5.90;5.03;;;;;;;12.27;36.62;96795.72;5046869;28;20586;-47
2021/04/16 12:56:48;;;;;;;5.38;4.70;;;;;;;12.80;36.29;96790.53;5042620;28;20100;-52
2021/04/16 12:59:17;;;;;;;6.00;5.40;;;;;;;12.80;37.30;96790.53;5045370;28;20064;-48
2021/04/16 13:01:46;;;;;;;6.38;4.97;;;;;;;13.64;35.69;96785.78;5041113;28;20065;-50
2021/04/16 13:04:16;;;;;;;6.00;5.05;;;;;;;13.48;37.02;96789.13;5046212;28;20069;-50
2021/04/16 13:06:45;;;;;;;7.93;5.45;;;;;;;11.27;38.11;96798.91;5046693;28;20077;-53
2021/04/16 13:09:13;;;;;;;5.97;4.68;;;;;;;12.60;38.57;96802.22;5044831;28;20060;-52
2021/04/16 13:11:42;;;;;;;5.40;4.90;;;;;;;12.49;36.10;96795.31;5044747;28;20080;-54
2021/04/16 13:14:09;;;;;;;5.18;4.35;;;;;;;12.68;37.22;96791.72;5045444;28;20068;-52
2021/04/16 13:16:37;;;;;;;5.20;4.70;;;;;;;12.61;38.50;96789.81;5035755;28;20073;-49
2021/04/16 13:19:07;;;;;;;5.43;4.68;;;;;;;13.00;37.17;96783.25;5047365;28;20060;-53
2021/04/16 13:21:37;;;;;;;5.38;4.88;;;;;;;12.65;35.99;96777.94;5045226;28;20084;-53
2021/04/16 13:24:06;;;;;;;6.03;5.13;;;;;;;12.38;37.49;96776.16;5046016;28;20061;-48
2021/04/16 13:26:33;;;;;;;8.25;4.95;;;;;;;11.56;38.95;96782.97;5039648;28;20060;-49
2021/04/16 13:29:03;;;;;;;6.32;5.05;;;;;;;11.52;38.13;96779.81;5044112;28;20071;-50
2021/04/16 13:31:32;;;;;;;5.63;4.63;;;;;;;10.91;39.31;96782.81;5034650;28;20518;-48
2021/04/16 13:34:01;;;;;;;6.72;4.85;;;;;;;11.25;38.95;96779.72;5047325;28;20565;-47
2021/04/16 13:36:31;;;;;;;5.68;5.07;;;;;;;10.38;40.32;96776.06;5044987;28;20534;-50
2021/04/16 13:38:59;;;;;;;5.30;4.80;;;;;;;10.55;40.10;96765.81;5049794;28;20402;-49
2021/04/16 13:41:28;;;;;;;5.50;4.78;;;;;;;10.59;39.97;96773.31;5033473;28;20089;-53
2021/04/16 13:43:55;;;;;;;5.72;4.50;;;;;;;10.87;39.43;96765.56;5046441;28;20095;-48
2021/04/16 13:46:25;;;;;;;4.82;4.32;;;;;;;10.75;39.37;96764.88;5048637;28;20075;-52
2021/04/16 13:48:54;;;;;;;5.30;4.53;;;;;;;10.64;39.61;96765.84;5046848;28;20079;-52
2021/04/16 13:51:24;;;;;;;6.43;4.35;;;;;;;10.43;40.47;96763.31;5043024;28;20077;-49
2021/04/16 13:53:52;;;;;;;5.47;4.32;;;;;;;10.24;40.73;96765.88;5045650;28;20190;-46
2021/04/16 13:56:20;;;;;;;6.35;4.80;;;;;;;10.68;40.31;96763.75;5048097;28;20072;-48
2021/04/16 13:58:47;;;;;;;6.13;5.30;;;;;;;10.36;40.84;96762.19;5045057;28;20061;-48
2021/04/16 14:01:15;;;;;;;6.53;5.05;;;;;;;10.57;40.55;96748.91;5048014;28;20521;-49